Weather at Tenerife Norte-Ciudad de La Laguna Airport

Public forecast

Using degrees Celsius for public forecast. Weather courtesy of forecast.io.

Current aviation weather report (METAR) for Tenerife Norte-Ciudad de La Laguna Airport

Report is more than 6 hours old.

2022/11/14 15:30 (retrieved 2 years ago)

GCXO 141530Z 13004KT 090V180 CAVOK 26/06 Q1021 NOSIG

Aviation forecast (TAF) for Tenerife Norte-Ciudad de La Laguna Airport

Forecast is more than 12 hours old.

2023/02/22 21:00 (retrieved 1 year ago)

TAF GCXO 222000Z 2221/2321 34009KT 9999 SCT010 TX17/2314Z TN11/2306Z TEMPO 2221/2312 BKN010 PROB30 TEMPO 2221/2311 2500 DZ BCFG BKN005